sensor_id;sensor_type;location;lat;lon;timestamp;temperature;humidity
44047;DHT22;29713;-33.888;151.150;2022-07-29T00:01:02;14.90;99.90
44047;DHT22;29713;-33.888;151.150;2022-07-29T00:03:29;15.00;99.90
44047;DHT22;29713;-33.888;151.150;2022-07-29T00:05:56;15.10;99.90
44047;DHT22;29713;-33.888;151.150;2022-07-29T00:08:23;15.20;99.90
44047;DHT22;29713;-33.888;151.150;2022-07-29T00:10:51;15.30;99.90
44047;DHT22;29713;-33.888;151.150;2022-07-29T00:13:18;15.40;99.90
44047;DHT22;29713;-33.888;151.150;2022-07-29T00:15:46;15.60;99.90
44047;DHT22;29713;-33.888;151.150;2022-07-29T00:18:13;15.70;99.90
44047;DHT22;29713;-33.888;151.150;2022-07-29T00:20:40;15.80;99.90
44047;DHT22;29713;-33.888;151.150;2022-07-29T00:23:08;15.90;99.90
44047;DHT22;29713;-33.888;151.150;2022-07-29T00:25:35;16.00;99.90
44047;DHT22;29713;-33.888;151.150;2022-07-29T00:28:02;16.10;99.90
44047;DHT22;29713;-33.888;151.150;2022-07-29T00:30:29;16.20;99.90
44047;DHT22;29713;-33.888;151.150;2022-07-29T00:32:57;16.30;99.90
44047;DHT22;29713;-33.888;151.150;2022-07-29T00:35:24;16.30;99.90
44047;DHT22;29713;-33.888;151.150;2022-07-29T00:38:11;16.40;99.90
44047;DHT22;29713;-33.888;151.150;2022-07-29T00:40:39;16.60;99.90
44047;DHT22;29713;-33.888;151.150;2022-07-29T00:43:06;16.60;99.90
44047;DHT22;29713;-33.888;151.150;2022-07-29T00:45:34;16.60;99.90
44047;DHT22;29713;-33.888;151.150;2022-07-29T00:48:02;16.60;99.90
44047;DHT22;29713;-33.888;151.150;2022-07-29T00:50:31;16.50;99.90
44047;DHT22;29713;-33.888;151.150;2022-07-29T00:52:59;16.50;99.90
44047;DHT22;29713;-33.888;151.150;2022-07-29T00:55:28;16.50;99.90
44047;DHT22;29713;-33.888;151.150;2022-07-29T00:57:56;16.70;99.90
44047;DHT22;29713;-33.888;151.150;2022-07-29T01:00:27;16.60;99.90
44047;DHT22;29713;-33.888;151.150;2022-07-29T01:02:55;16.60;99.90
44047;DHT22;29713;-33.888;151.150;2022-07-29T01:05:24;16.70;99.90
44047;DHT22;29713;-33.888;151.150;2022-07-29T01:07:53;16.80;99.90
44047;DHT22;29713;-33.888;151.150;2022-07-29T01:10:21;17.10;99.90
44047;DHT22;29713;-33.888;151.150;2022-07-29T01:12:52;17.40;99.90
44047;DHT22;29713;-33.888;151.150;2022-07-29T01:15:21;17.40;99.90
44047;DHT22;29713;-33.888;151.150;2022-07-29T01:24:07;18.10;99.90
44047;DHT22;29713;-33.888;151.150;2022-07-29T01:26:40;18.30;99.90
44047;DHT22;29713;-33.888;151.150;2022-07-29T01:31:59;18.80;99.90
44047;DHT22;29713;-33.888;151.150;2022-07-29T01:34:50;18.70;99.90
44047;DHT22;29713;-33.888;151.150;2022-07-29T01:37:20;18.80;99.90
44047;DHT22;29713;-33.888;151.150;2022-07-29T01:39:51;18.70;99.90
44047;DHT22;29713;-33.888;151.150;2022-07-29T01:45:17;19.30;99.90
44047;DHT22;29713;-33.888;151.150;2022-07-29T01:47:54;19.50;99.90
44047;DHT22;29713;-33.888;151.150;2022-07-29T01:50:30;19.80;99.90
44047;DHT22;29713;-33.888;151.150;2022-07-29T01:53:01;20.10;99.90
44047;DHT22;29713;-33.888;151.150;2022-07-29T01:55:34;20.40;99.90
44047;DHT22;29713;-33.888;151.150;2022-07-29T01:58:04;20.70;99.90
44047;DHT22;29713;-33.888;151.150;2022-07-29T02:00:34;20.80;99.90
44047;DHT22;29713;-33.888;151.150;2022-07-29T02:03:09;21.10;99.90
44047;DHT22;29713;-33.888;151.150;2022-07-29T02:05:40;21.30;99.90
44047;DHT22;29713;-33.888;151.150;2022-07-29T02:08:08;21.80;99.90
44047;DHT22;29713;-33.888;151.150;2022-07-29T02:10:38;22.20;99.80
44047;DHT22;29713;-33.888;151.150;2022-07-29T02:13:08;22.20;96.10
44047;DHT22;29713;-33.888;151.150;2022-07-29T02:15:37;22.30;95.30
44047;DHT22;29713;-33.888;151.150;2022-07-29T02:18:16;22.50;96.80
44047;DHT22;29713;-33.888;151.150;2022-07-29T02:20:53;22.80;95.10
44047;DHT22;29713;-33.888;151.150;2022-07-29T02:23:25;23.00;95.00
44047;DHT22;29713;-33.888;151.150;2022-07-29T02:25:56;23.20;94.50
44047;DHT22;29713;-33.888;151.150;2022-07-29T02:28:27;23.60;95.40
44047;DHT22;29713;-33.888;151.150;2022-07-29T02:30:58;23.80;91.90
44047;DHT22;29713;-33.888;151.150;2022-07-29T02:33:27;23.90;90.80
44047;DHT22;29713;-33.888;151.150;2022-07-29T02:35:57;23.90;86.60
44047;DHT22;29713;-33.888;151.150;2022-07-29T02:38:26;23.90;87.50
44047;DHT22;29713;-33.888;151.150;2022-07-29T02:41:15;23.90;86.40
44047;DHT22;29713;-33.888;151.150;2022-07-29T02:43:44;24.10;87.30
44047;DHT22;29713;-33.888;151.150;2022-07-29T02:46:26;24.10;86.10
44047;DHT22;29713;-33.888;151.150;2022-07-29T02:49:10;24.10;82.70
44047;DHT22;29713;-33.888;151.150;2022-07-29T02:51:51;24.20;85.40
44047;DHT22;29713;-33.888;151.150;2022-07-29T02:54:31;24.20;83.50
44047;DHT22;29713;-33.888;151.150;2022-07-29T02:57:06;24.20;78.90
44047;DHT22;29713;-33.888;151.150;2022-07-29T02:59:37;24.30;79.60
44047;DHT22;29713;-33.888;151.150;2022-07-29T03:02:09;24.40;81.90
44047;DHT22;29713;-33.888;151.150;2022-07-29T03:04:39;24.40;78.60
44047;DHT22;29713;-33.888;151.150;2022-07-29T03:07:09;24.40;75.00
44047;DHT22;29713;-33.888;151.150;2022-07-29T03:09:38;24.40;75.20
44047;DHT22;29713;-33.888;151.150;2022-07-29T03:12:06;24.40;77.90
44047;DHT22;29713;-33.888;151.150;2022-07-29T03:14:34;24.50;73.20
44047;DHT22;29713;-33.888;151.150;2022-07-29T03:17:03;24.40;76.60
44047;DHT22;29713;-33.888;151.150;2022-07-29T03:19:31;24.40;75.00
44047;DHT22;29713;-33.888;151.150;2022-07-29T03:21:59;24.60;78.90
44047;DHT22;29713;-33.888;151.150;2022-07-29T03:24:28;24.70;76.60
44047;DHT22;29713;-33.888;151.150;2022-07-29T03:26:56;24.60;73.50
44047;DHT22;29713;-33.888;151.150;2022-07-29T03:29:25;24.60;73.00
44047;DHT22;29713;-33.888;151.150;2022-07-29T03:31:52;24.50;71.10
44047;DHT22;29713;-33.888;151.150;2022-07-29T03:34:20;24.50;73.30
44047;DHT22;29713;-33.888;151.150;2022-07-29T03:36:48;24.50;73.60
44047;DHT22;29713;-33.888;151.150;2022-07-29T03:39:21;24.60;78.10
44047;DHT22;29713;-33.888;151.150;2022-07-29T03:41:51;24.50;71.20
44047;DHT22;29713;-33.888;151.150;2022-07-29T03:44:20;24.30;73.00
44047;DHT22;29713;-33.888;151.150;2022-07-29T03:46:49;24.30;69.60
44047;DHT22;29713;-33.888;151.150;2022-07-29T03:49:19;24.00;72.40
44047;DHT22;29713;-33.888;151.150;2022-07-29T03:51:47;23.80;69.40
44047;DHT22;29713;-33.888;151.150;2022-07-29T03:54:14;23.90;76.50
44047;DHT22;29713;-33.888;151.150;2022-07-29T03:56:43;23.90;74.80
44047;DHT22;29713;-33.888;151.150;2022-07-29T03:59:16;23.90;78.00
44047;DHT22;29713;-33.888;151.150;2022-07-29T04:01:46;23.80;75.10
44047;DHT22;29713;-33.888;151.150;2022-07-29T04:04:14;23.80;76.70
44047;DHT22;29713;-33.888;151.150;2022-07-29T04:06:44;23.70;73.60
44047;DHT22;29713;-33.888;151.150;2022-07-29T04:09:12;23.70;76.60
44047;DHT22;29713;-33.888;151.150;2022-07-29T04:11:41;23.50;77.10
44047;DHT22;29713;-33.888;151.150;2022-07-29T04:14:08;23.30;73.30
44047;DHT22;29713;-33.888;151.150;2022-07-29T04:16:36;23.30;76.60
44047;DHT22;29713;-33.888;151.150;2022-07-29T04:19:03;23.30;75.90
44047;DHT22;29713;-33.888;151.150;2022-07-29T04:21:31;23.40;75.80
44047;DHT22;29713;-33.888;151.150;2022-07-29T04:23:58;23.20;72.50
44047;DHT22;29713;-33.888;151.150;2022-07-29T04:26:26;23.20;79.50
44047;DHT22;29713;-33.888;151.150;2022-07-29T04:28:53;23.20;77.40
44047;DHT22;29713;-33.888;151.150;2022-07-29T04:31:20;23.20;78.90
44047;DHT22;29713;-33.888;151.150;2022-07-29T04:33:47;23.00;77.30
44047;DHT22;29713;-33.888;151.150;2022-07-29T04:36:15;22.90;78.00
44047;DHT22;29713;-33.888;151.150;2022-07-29T04:38:42;22.90;79.10
44047;DHT22;29713;-33.888;151.150;2022-07-29T04:41:09;22.70;80.20
44047;DHT22;29713;-33.888;151.150;2022-07-29T04:43:37;22.60;80.10
44047;DHT22;29713;-33.888;151.150;2022-07-29T04:46:05;22.50;81.90
44047;DHT22;29713;-33.888;151.150;2022-07-29T04:48:33;22.30;79.50
44047;DHT22;29713;-33.888;151.150;2022-07-29T04:51:00;22.10;83.00
44047;DHT22;29713;-33.888;151.150;2022-07-29T04:53:28;21.80;79.50
44047;DHT22;29713;-33.888;151.150;2022-07-29T04:55:55;21.50;79.10
44047;DHT22;29713;-33.888;151.150;2022-07-29T04:58:22;21.20;79.20
44047;DHT22;29713;-33.888;151.150;2022-07-29T05:00:50;20.90;78.90
44047;DHT22;29713;-33.888;151.150;2022-07-29T05:03:19;20.80;81.80
44047;DHT22;29713;-33.888;151.150;2022-07-29T05:05:46;20.70;82.00
44047;DHT22;29713;-33.888;151.150;2022-07-29T05:08:14;20.40;82.10
44047;DHT22;29713;-33.888;151.150;2022-07-29T05:10:41;20.10;81.80
44047;DHT22;29713;-33.888;151.150;2022-07-29T05:13:08;20.00;82.10
44047;DHT22;29713;-33.888;151.150;2022-07-29T05:15:37;19.80;82.60
44047;DHT22;29713;-33.888;151.150;2022-07-29T05:18:06;19.60;83.10
44047;DHT22;29713;-33.888;151.150;2022-07-29T05:20:33;19.40;81.40
44047;DHT22;29713;-33.888;151.150;2022-07-29T05:23:02;19.00;82.20
44047;DHT22;29713;-33.888;151.150;2022-07-29T05:25:29;18.80;82.90
44047;DHT22;29713;-33.888;151.150;2022-07-29T05:27:57;18.50;85.40
44047;DHT22;29713;-33.888;151.150;2022-07-29T05:30:25;18.30;83.50
44047;DHT22;29713;-33.888;151.150;2022-07-29T05:32:52;18.10;84.60
44047;DHT22;29713;-33.888;151.150;2022-07-29T05:35:20;18.00;85.20
44047;DHT22;29713;-33.888;151.150;2022-07-29T05:37:47;18.00;85.40
44047;DHT22;29713;-33.888;151.150;2022-07-29T05:40:14;17.90;82.80
44047;DHT22;29713;-33.888;151.150;2022-07-29T05:42:42;17.90;85.70
44047;DHT22;29713;-33.888;151.150;2022-07-29T05:45:09;17.80;86.90
44047;DHT22;29713;-33.888;151.150;2022-07-29T05:47:37;17.70;86.70
44047;DHT22;29713;-33.888;151.150;2022-07-29T05:50:04;17.70;88.50
44047;DHT22;29713;-33.888;151.150;2022-07-29T05:52:32;17.50;89.30
44047;DHT22;29713;-33.888;151.150;2022-07-29T05:54:59;17.50;90.40
44047;DHT22;29713;-33.888;151.150;2022-07-29T05:57:30;17.40;88.60
44047;DHT22;29713;-33.888;151.150;2022-07-29T05:59:58;17.40;89.90
44047;DHT22;29713;-33.888;151.150;2022-07-29T06:02:25;17.30;89.50
44047;DHT22;29713;-33.888;151.150;2022-07-29T06:04:53;17.30;90.50
44047;DHT22;29713;-33.888;151.150;2022-07-29T06:07:20;17.20;90.30
44047;DHT22;29713;-33.888;151.150;2022-07-29T06:09:47;17.10;90.60
44047;DHT22;29713;-33.888;151.150;2022-07-29T06:12:15;17.00;91.10
44047;DHT22;29713;-33.888;151.150;2022-07-29T06:14:42;16.90;91.40
44047;DHT22;29713;-33.888;151.150;2022-07-29T06:17:09;16.80;91.90
44047;DHT22;29713;-33.888;151.150;2022-07-29T06:19:38;16.80;92.40
44047;DHT22;29713;-33.888;151.150;2022-07-29T06:22:05;16.70;93.10
44047;DHT22;29713;-33.888;151.150;2022-07-29T06:24:32;16.60;93.40
44047;DHT22;29713;-33.888;151.150;2022-07-29T06:27:00;16.50;93.70
44047;DHT22;29713;-33.888;151.150;2022-07-29T06:29:27;16.40;93.20
44047;DHT22;29713;-33.888;151.150;2022-07-29T06:31:54;16.40;93.90
44047;DHT22;29713;-33.888;151.150;2022-07-29T06:34:22;16.30;94.20
44047;DHT22;29713;-33.888;151.150;2022-07-29T06:36:49;16.30;94.60
44047;DHT22;29713;-33.888;151.150;2022-07-29T06:39:16;16.20;94.10
44047;DHT22;29713;-33.888;151.150;2022-07-29T06:41:47;16.20;94.40
44047;DHT22;29713;-33.888;151.150;2022-07-29T06:44:18;16.10;94.40
44047;DHT22;29713;-33.888;151.150;2022-07-29T06:46:45;15.90;93.40
44047;DHT22;29713;-33.888;151.150;2022-07-29T06:49:15;15.80;93.80
44047;DHT22;29713;-33.888;151.150;2022-07-29T06:51:43;15.70;93.70
44047;DHT22;29713;-33.888;151.150;2022-07-29T06:54:10;15.70;94.20
44047;DHT22;29713;-33.888;151.150;2022-07-29T06:56:37;15.60;94.60
44047;DHT22;29713;-33.888;151.150;2022-07-29T06:59:08;15.60;94.60
44047;DHT22;29713;-33.888;151.150;2022-07-29T07:01:41;15.60;94.80
44047;DHT22;29713;-33.888;151.150;2022-07-29T07:04:09;15.60;95.80
44047;DHT22;29713;-33.888;151.150;2022-07-29T07:06:37;15.50;95.60
44047;DHT22;29713;-33.888;151.150;2022-07-29T07:09:05;15.50;95.90
44047;DHT22;29713;-33.888;151.150;2022-07-29T07:11:32;15.40;96.00
44047;DHT22;29713;-33.888;151.150;2022-07-29T07:13:59;15.40;96.80
44047;DHT22;29713;-33.888;151.150;2022-07-29T07:16:27;15.40;96.80
44047;DHT22;29713;-33.888;151.150;2022-07-29T07:18:54;15.40;97.40
44047;DHT22;29713;-33.888;151.150;2022-07-29T07:21:21;15.40;97.70
44047;DHT22;29713;-33.888;151.150;2022-07-29T07:23:49;15.40;97.70
44047;DHT22;29713;-33.888;151.150;2022-07-29T07:26:16;15.30;97.90
44047;DHT22;29713;-33.888;151.150;2022-07-29T07:28:43;15.30;97.90
44047;DHT22;29713;-33.888;151.150;2022-07-29T07:31:11;15.30;98.10
44047;DHT22;29713;-33.888;151.150;2022-07-29T07:33:39;15.20;98.00
44047;DHT22;29713;-33.888;151.150;2022-07-29T07:36:06;15.20;98.40
44047;DHT22;29713;-33.888;151.150;2022-07-29T07:38:33;15.20;98.80
44047;DHT22;29713;-33.888;151.150;2022-07-29T07:41:01;15.20;98.80
44047;DHT22;29713;-33.888;151.150;2022-07-29T07:43:29;15.20;99.00
44047;DHT22;29713;-33.888;151.150;2022-07-29T07:45:56;15.10;99.00
44047;DHT22;29713;-33.888;151.150;2022-07-29T07:48:24;15.00;99.10
44047;DHT22;29713;-33.888;151.150;2022-07-29T07:50:51;15.00;99.30
44047;DHT22;29713;-33.888;151.150;2022-07-29T07:53:18;14.90;99.70
44047;DHT22;29713;-33.888;151.150;2022-07-29T07:55:46;14.90;99.90
44047;DHT22;29713;-33.888;151.150;2022-07-29T07:58:13;14.80;99.90
44047;DHT22;29713;-33.888;151.150;2022-07-29T08:00:40;14.80;99.90
44047;DHT22;29713;-33.888;151.150;2022-07-29T08:03:08;14.70;99.90
44047;DHT22;29713;-33.888;151.150;2022-07-29T08:05:41;14.70;99.90
44047;DHT22;29713;-33.888;151.150;2022-07-29T08:08:09;14.70;99.90
44047;DHT22;29713;-33.888;151.150;2022-07-29T08:10:36;14.70;99.90
44047;DHT22;29713;-33.888;151.150;2022-07-29T08:13:24;14.60;99.90
44047;DHT22;29713;-33.888;151.150;2022-07-29T08:15:53;14.60;99.90
44047;DHT22;29713;-33.888;151.150;2022-07-29T08:18:25;14.60;99.90
44047;DHT22;29713;-33.888;151.150;2022-07-29T08:20:52;14.50;99.90
44047;DHT22;29713;-33.888;151.150;2022-07-29T08:23:20;14.50;99.90
44047;DHT22;29713;-33.888;151.150;2022-07-29T08:25:47;14.50;99.90
44047;DHT22;29713;-33.888;151.150;2022-07-29T08:28:15;14.50;99.90
44047;DHT22;29713;-33.888;151.150;2022-07-29T08:30:42;14.50;99.90
44047;DHT22;29713;-33.888;151.150;2022-07-29T08:33:10;14.50;99.90
44047;DHT22;29713;-33.888;151.150;2022-07-29T08:35:39;14.50;99.90
44047;DHT22;29713;-33.888;151.150;2022-07-29T08:38:06;14.50;99.90
44047;DHT22;29713;-33.888;151.150;2022-07-29T08:40:34;14.50;99.90
44047;DHT22;29713;-33.888;151.150;2022-07-29T08:43:08;14.50;99.90
44047;DHT22;29713;-33.888;151.150;2022-07-29T08:45:53;14.50;99.90
44047;DHT22;29713;-33.888;151.150;2022-07-29T08:48:22;14.50;99.90
44047;DHT22;29713;-33.888;151.150;2022-07-29T08:50:57;14.50;99.90
44047;DHT22;29713;-33.888;151.150;2022-07-29T08:53:26;14.50;99.90
44047;DHT22;29713;-33.888;151.150;2022-07-29T08:55:55;14.40;99.90
44047;DHT22;29713;-33.888;151.150;2022-07-29T08:58:24;14.30;99.90
44047;DHT22;29713;-33.888;151.150;2022-07-29T09:00:56;14.40;99.90
44047;DHT22;29713;-33.888;151.150;2022-07-29T09:03:27;14.30;99.90
44047;DHT22;29713;-33.888;151.150;2022-07-29T09:05:59;14.30;99.90
44047;DHT22;29713;-33.888;151.150;2022-07-29T09:08:28;14.30;99.90
44047;DHT22;29713;-33.888;151.150;2022-07-29T09:10:55;14.20;99.90
44047;DHT22;29713;-33.888;151.150;2022-07-29T09:13:23;14.20;99.90
44047;DHT22;29713;-33.888;151.150;2022-07-29T09:15:51;14.10;99.90
44047;DHT22;29713;-33.888;151.150;2022-07-29T09:18:40;14.10;99.90
44047;DHT22;29713;-33.888;151.150;2022-07-29T09:21:10;14.00;99.90
44047;DHT22;29713;-33.888;151.150;2022-07-29T09:26:31;14.00;99.90
44047;DHT22;29713;-33.888;151.150;2022-07-29T09:28:59;14.00;99.90
44047;DHT22;29713;-33.888;151.150;2022-07-29T09:31:46;14.00;99.90
44047;DHT22;29713;-33.888;151.150;2022-07-29T09:34:31;14.00;99.90
44047;DHT22;29713;-33.888;151.150;2022-07-29T09:36:58;14.00;99.90
44047;DHT22;29713;-33.888;151.150;2022-07-29T09:39:31;14.00;99.90
44047;DHT22;29713;-33.888;151.150;2022-07-29T09:42:01;13.90;99.90
44047;DHT22;29713;-33.888;151.150;2022-07-29T09:44:42;13.80;99.90
44047;DHT22;29713;-33.888;151.150;2022-07-29T09:47:09;13.80;99.90
44047;DHT22;29713;-33.888;151.150;2022-07-29T09:49:52;13.70;99.90
44047;DHT22;29713;-33.888;151.150;2022-07-29T09:52:20;13.70;99.90
44047;DHT22;29713;-33.888;151.150;2022-07-29T09:54:48;13.70;99.90
44047;DHT22;29713;-33.888;151.150;2022-07-29T09:57:26;13.70;99.90
44047;DHT22;29713;-33.888;151.150;2022-07-29T09:59:59;13.70;99.90
44047;DHT22;29713;-33.888;151.150;2022-07-29T10:02:34;13.70;99.90
44047;DHT22;29713;-33.888;151.150;2022-07-29T10:05:05;13.70;99.90
44047;DHT22;29713;-33.888;151.150;2022-07-29T10:10:17;13.60;99.90
44047;DHT22;29713;-33.888;151.150;2022-07-29T10:12:54;13.60;99.90
44047;DHT22;29713;-33.888;151.150;2022-07-29T10:15:26;13.50;99.90
44047;DHT22;29713;-33.888;151.150;2022-07-29T10:17:55;13.60;99.90
44047;DHT22;29713;-33.888;151.150;2022-07-29T10:20:24;13.60;99.90
44047;DHT22;29713;-33.888;151.150;2022-07-29T10:22:52;13.60;99.90
44047;DHT22;29713;-33.888;151.150;2022-07-29T10:25:20;13.60;99.90
44047;DHT22;29713;-33.888;151.150;2022-07-29T10:27:49;13.60;99.90
44047;DHT22;29713;-33.888;151.150;2022-07-29T10:30:19;13.60;99.90
44047;DHT22;29713;-33.888;151.150;2022-07-29T10:33:17;13.60;99.90
44047;DHT22;29713;-33.888;151.150;2022-07-29T10:44:40;13.40;99.90
44047;DHT22;29713;-33.888;151.150;2022-07-29T10:47:08;13.40;99.90
44047;DHT22;29713;-33.888;151.150;2022-07-29T10:49:35;13.30;99.90
44047;DHT22;29713;-33.888;151.150;2022-07-29T10:52:09;13.40;99.90
44047;DHT22;29713;-33.888;151.150;2022-07-29T10:57:31;13.20;99.90
44047;DHT22;29713;-33.888;151.150;2022-07-29T11:05:11;13.00;99.90
44047;DHT22;29713;-33.888;151.150;2022-07-29T11:08:16;13.00;99.90
44047;DHT22;29713;-33.888;151.150;2022-07-29T11:10:27;13.00;99.90
44047;DHT22;29713;-33.888;151.150;2022-07-29T11:12:54;12.90;99.90
44047;DHT22;29713;-33.888;151.150;2022-07-29T11:15:22;12.90;99.90
44047;DHT22;29713;-33.888;151.150;2022-07-29T11:20:50;12.70;99.90
44047;DHT22;29713;-33.888;151.150;2022-07-29T11:23:28;12.60;99.90
44047;DHT22;29713;-33.888;151.150;2022-07-29T11:26:14;12.60;99.90
44047;DHT22;29713;-33.888;151.150;2022-07-29T11:31:42;12.50;99.90
44047;DHT22;29713;-33.888;151.150;2022-07-29T11:34:26;12.40;99.90
44047;DHT22;29713;-33.888;151.150;2022-07-29T11:37:26;12.40;99.90
44047;DHT22;29713;-33.888;151.150;2022-07-29T11:44:56;12.20;99.90
44047;DHT22;29713;-33.888;151.150;2022-07-29T11:47:25;12.20;99.90
44047;DHT22;29713;-33.888;151.150;2022-07-29T11:49:55;12.20;99.90
44047;DHT22;29713;-33.888;151.150;2022-07-29T11:52:31;12.20;99.90
44047;DHT22;29713;-33.888;151.150;2022-07-29T11:55:03;12.10;99.90
44047;DHT22;29713;-33.888;151.150;2022-07-29T11:57:31;12.10;99.90
44047;DHT22;29713;-33.888;151.150;2022-07-29T11:59:58;12.00;99.90
44047;DHT22;29713;-33.888;151.150;2022-07-29T12:02:39;12.00;99.90
44047;DHT22;29713;-33.888;151.150;2022-07-29T12:05:09;12.00;99.90
44047;DHT22;29713;-33.888;151.150;2022-07-29T12:07:38;12.00;99.90
44047;DHT22;29713;-33.888;151.150;2022-07-29T12:10:06;12.10;99.90
44047;DHT22;29713;-33.888;151.150;2022-07-29T12:12:35;12.10;99.90
44047;DHT22;29713;-33.888;151.150;2022-07-29T12:15:16;12.10;99.90
44047;DHT22;29713;-33.888;151.150;2022-07-29T12:17:50;12.20;99.90
44047;DHT22;29713;-33.888;151.150;2022-07-29T12:20:26;12.20;99.90
44047;DHT22;29713;-33.888;151.150;2022-07-29T12:22:54;12.30;99.90
44047;DHT22;29713;-33.888;151.150;2022-07-29T12:25:23;12.30;99.90
44047;DHT22;29713;-33.888;151.150;2022-07-29T12:28:17;12.30;99.90
44047;DHT22;29713;-33.888;151.150;2022-07-29T12:30:47;12.30;99.90
44047;DHT22;29713;-33.888;151.150;2022-07-29T12:33:27;12.20;99.90
44047;DHT22;29713;-33.888;151.150;2022-07-29T12:36:01;12.10;99.90
44047;DHT22;29713;-33.888;151.150;2022-07-29T12:38:29;12.10;99.90
44047;DHT22;29713;-33.888;151.150;2022-07-29T12:40:56;12.10;99.90
44047;DHT22;29713;-33.888;151.150;2022-07-29T12:43:25;12.10;99.90
44047;DHT22;29713;-33.888;151.150;2022-07-29T12:45:54;12.10;99.90
44047;DHT22;29713;-33.888;151.150;2022-07-29T12:48:38;12.00;99.90
44047;DHT22;29713;-33.888;151.150;2022-07-29T12:51:07;12.00;99.90
44047;DHT22;29713;-33.888;151.150;2022-07-29T12:53:36;12.00;99.90
44047;DHT22;29713;-33.888;151.150;2022-07-29T12:56:04;12.00;99.90
44047;DHT22;29713;-33.888;151.150;2022-07-29T13:01:12;12.00;99.90
44047;DHT22;29713;-33.888;151.150;2022-07-29T13:03:48;12.10;99.90
44047;DHT22;29713;-33.888;151.150;2022-07-29T13:09:19;12.00;99.90
44047;DHT22;29713;-33.888;151.150;2022-07-29T13:11:51;12.00;99.90
44047;DHT22;29713;-33.888;151.150;2022-07-29T13:14:42;11.90;99.90
44047;DHT22;29713;-33.888;151.150;2022-07-29T13:17:18;11.90;99.90
44047;DHT22;29713;-33.888;151.150;2022-07-29T13:19:49;11.90;99.90
44047;DHT22;29713;-33.888;151.150;2022-07-29T13:22:22;11.90;99.90
44047;DHT22;29713;-33.888;151.150;2022-07-29T13:24:54;11.90;99.90
44047;DHT22;29713;-33.888;151.150;2022-07-29T13:27:26;11.90;99.90
44047;DHT22;29713;-33.888;151.150;2022-07-29T13:29:55;11.80;99.90
44047;DHT22;29713;-33.888;151.150;2022-07-29T13:32:27;11.60;99.90
44047;DHT22;29713;-33.888;151.150;2022-07-29T13:34:55;11.50;99.90
44047;DHT22;29713;-33.888;151.150;2022-07-29T13:37:23;11.50;99.90
44047;DHT22;29713;-33.888;151.150;2022-07-29T13:39:51;11.40;99.90
44047;DHT22;29713;-33.888;151.150;2022-07-29T13:42:19;11.40;99.90
44047;DHT22;29713;-33.888;151.150;2022-07-29T13:44:47;11.40;99.90
44047;DHT22;29713;-33.888;151.150;2022-07-29T13:47:17;11.30;99.90
44047;DHT22;29713;-33.888;151.150;2022-07-29T13:49:45;11.30;99.90
44047;DHT22;29713;-33.888;151.150;2022-07-29T13:52:13;11.20;99.90
44047;DHT22;29713;-33.888;151.150;2022-07-29T13:54:40;11.10;99.90
44047;DHT22;29713;-33.888;151.150;2022-07-29T13:57:08;11.10;99.90
44047;DHT22;29713;-33.888;151.150;2022-07-29T13:59:37;11.00;99.90
44047;DHT22;29713;-33.888;151.150;2022-07-29T14:02:04;10.90;99.90
44047;DHT22;29713;-33.888;151.150;2022-07-29T14:04:32;10.90;99.90
44047;DHT22;29713;-33.888;151.150;2022-07-29T14:07:00;10.90;99.90
44047;DHT22;29713;-33.888;151.150;2022-07-29T14:09:27;11.00;99.90
44047;DHT22;29713;-33.888;151.150;2022-07-29T14:11:55;10.90;99.90
44047;DHT22;29713;-33.888;151.150;2022-07-29T14:14:22;10.90;99.90
44047;DHT22;29713;-33.888;151.150;2022-07-29T14:16:49;10.90;99.90
44047;DHT22;29713;-33.888;151.150;2022-07-29T14:19:17;10.90;99.90
44047;DHT22;29713;-33.888;151.150;2022-07-29T14:21:44;10.90;99.90
44047;DHT22;29713;-33.888;151.150;2022-07-29T14:24:11;10.80;99.90
44047;DHT22;29713;-33.888;151.150;2022-07-29T14:26:39;10.70;99.90
44047;DHT22;29713;-33.888;151.150;2022-07-29T14:29:06;10.60;99.90
44047;DHT22;29713;-33.888;151.150;2022-07-29T14:31:33;10.60;99.90
44047;DHT22;29713;-33.888;151.150;2022-07-29T14:34:01;10.50;99.90
44047;DHT22;29713;-33.888;151.150;2022-07-29T14:36:28;10.40;99.90
44047;DHT22;29713;-33.888;151.150;2022-07-29T14:38:55;10.40;99.90
44047;DHT22;29713;-33.888;151.150;2022-07-29T14:41:23;10.30;99.90
44047;DHT22;29713;-33.888;151.150;2022-07-29T14:43:50;10.30;99.90
44047;DHT22;29713;-33.888;151.150;2022-07-29T14:46:19;10.30;99.90
44047;DHT22;29713;-33.888;151.150;2022-07-29T14:48:47;10.30;99.90
44047;DHT22;29713;-33.888;151.150;2022-07-29T14:51:14;10.30;99.90
44047;DHT22;29713;-33.888;151.150;2022-07-29T14:53:41;10.20;99.90
44047;DHT22;29713;-33.888;151.150;2022-07-29T14:56:09;10.20;99.90
44047;DHT22;29713;-33.888;151.150;2022-07-29T14:58:37;10.30;99.90
44047;DHT22;29713;-33.888;151.150;2022-07-29T15:01:04;10.30;99.90
44047;DHT22;29713;-33.888;151.150;2022-07-29T15:03:32;10.30;99.90
44047;DHT22;29713;-33.888;151.150;2022-07-29T15:05:59;10.30;99.90
44047;DHT22;29713;-33.888;151.150;2022-07-29T15:08:27;10.30;99.90
44047;DHT22;29713;-33.888;151.150;2022-07-29T15:10:56;10.20;99.90
44047;DHT22;29713;-33.888;151.150;2022-07-29T15:13:27;10.20;99.90
44047;DHT22;29713;-33.888;151.150;2022-07-29T15:15:54;10.10;99.90
44047;DHT22;29713;-33.888;151.150;2022-07-29T15:18:21;10.10;99.90
44047;DHT22;29713;-33.888;151.150;2022-07-29T15:20:49;10.20;99.90
44047;DHT22;29713;-33.888;151.150;2022-07-29T15:23:16;10.20;99.90
44047;DHT22;29713;-33.888;151.150;2022-07-29T15:25:43;10.20;99.90
44047;DHT22;29713;-33.888;151.150;2022-07-29T15:28:11;10.20;99.90
44047;DHT22;29713;-33.888;151.150;2022-07-29T15:30:38;10.20;99.90
44047;DHT22;29713;-33.888;151.150;2022-07-29T15:33:09;10.10;99.90
44047;DHT22;29713;-33.888;151.150;2022-07-29T15:35:37;10.10;99.90
44047;DHT22;29713;-33.888;151.150;2022-07-29T15:38:05;10.10;99.90
44047;DHT22;29713;-33.888;151.150;2022-07-29T15:40:32;10.00;99.90
44047;DHT22;29713;-33.888;151.150;2022-07-29T15:43:04;10.00;99.90
44047;DHT22;29713;-33.888;151.150;2022-07-29T15:45:39;10.00;99.90
44047;DHT22;29713;-33.888;151.150;2022-07-29T15:48:08;10.00;99.90
44047;DHT22;29713;-33.888;151.150;2022-07-29T15:50:36;10.00;99.90
44047;DHT22;29713;-33.888;151.150;2022-07-29T15:53:04;10.00;99.90
44047;DHT22;29713;-33.888;151.150;2022-07-29T15:55:32;10.00;99.90